createdAt,value
2018-05-14T00:01:39.861Z,93.00
2018-05-14T00:04:06.495Z,92.80
2018-05-14T00:06:32.762Z,93.10
2018-05-14T00:08:59.896Z,93.10
2018-05-14T00:11:26.144Z,93.20
2018-05-14T00:13:52.873Z,93.30
2018-05-14T00:16:19.171Z,93.20
2018-05-14T00:18:45.626Z,93.20
2018-05-14T00:21:11.913Z,93.40
2018-05-14T00:23:38.146Z,93.40
2018-05-14T00:26:04.414Z,93.50
2018-05-14T00:28:30.666Z,93.40
2018-05-14T00:30:56.978Z,93.40
2018-05-14T00:33:23.217Z,93.40
2018-05-14T00:35:50.394Z,93.30
2018-05-14T00:38:17.429Z,93.30
2018-05-14T00:40:43.682Z,93.40
2018-05-14T00:43:09.919Z,94.00
2018-05-14T00:45:36.506Z,93.70
2018-05-14T00:48:02.763Z,93.50
2018-05-14T00:50:29.025Z,93.30
2018-05-14T00:52:55.610Z,93.40
2018-05-14T00:55:21.855Z,93.40
2018-05-14T00:57:48.138Z,93.10
2018-05-14T01:00:14.382Z,93.50
2018-05-14T01:02:41.090Z,93.90
2018-05-14T01:05:07.335Z,93.90
2018-05-14T01:07:33.598Z,93.80
2018-05-14T01:10:00.141Z,94.00
2018-05-14T01:12:26.412Z,94.30
2018-05-14T01:14:52.659Z,94.00
2018-05-14T01:17:19.938Z,94.00
2018-05-14T01:19:46.186Z,94.20
2018-05-14T01:22:12.958Z,94.00
2018-05-14T01:24:39.254Z,94.10
2018-05-14T01:27:05.842Z,94.10
2018-05-14T01:29:32.098Z,94.20
2018-05-14T01:31:58.818Z,94.30
2018-05-14T01:34:25.096Z,94.10
2018-05-14T01:36:51.815Z,94.40
2018-05-14T01:39:18.070Z,94.30
2018-05-14T01:41:44.313Z,94.30
2018-05-14T01:44:10.578Z,94.40
2018-05-14T01:46:36.809Z,94.60
2018-05-14T01:49:03.102Z,94.40
2018-05-14T01:51:30.139Z,94.50
2018-05-14T01:53:56.398Z,94.50
2018-05-14T01:56:22.630Z,94.70
2018-05-14T01:58:49.089Z,94.80
2018-05-14T02:01:15.350Z,94.30
2018-05-14T02:03:41.839Z,94.50
2018-05-14T02:06:08.067Z,94.90
2018-05-14T02:08:34.341Z,94.80
2018-05-14T02:11:00.574Z,94.60
2018-05-14T02:13:26.828Z,94.60
2018-05-14T02:15:53.062Z,94.90
2018-05-14T02:18:19.337Z,94.80
2018-05-14T02:20:46.327Z,94.70
2018-05-14T02:23:12.630Z,94.70
2018-05-14T02:25:39.601Z,95.00
2018-05-14T02:28:06.419Z,94.90
2018-05-14T02:30:32.650Z,94.90
2018-05-14T02:32:59.174Z,94.90
2018-05-14T02:35:25.446Z,95.10
2018-05-14T02:37:52.059Z,94.80
2018-05-14T02:40:18.402Z,95.20
2018-05-14T02:42:45.057Z,95.00
2018-05-14T02:45:11.321Z,95.00
2018-05-14T02:47:37.575Z,95.10
2018-05-14T02:50:03.846Z,95.00
2018-05-14T02:52:30.089Z,95.00
2018-05-14T02:54:56.338Z,95.20
2018-05-14T02:57:22.984Z,95.40
2018-05-14T02:59:49.398Z,95.20
2018-05-14T03:02:15.667Z,95.30
2018-05-14T03:04:42.600Z,95.30
2018-05-14T03:07:08.838Z,95.10
2018-05-14T03:09:35.597Z,95.10
2018-05-14T03:12:01.869Z,95.20
2018-05-14T03:14:28.565Z,95.20
2018-05-14T03:16:54.823Z,95.10
2018-05-14T03:19:21.582Z,95.20
2018-05-14T03:21:47.858Z,95.30
2018-05-14T03:24:14.126Z,95.30
2018-05-14T03:26:40.435Z,95.20
2018-05-14T03:29:06.681Z,95.40
2018-05-14T03:31:32.937Z,95.40
2018-05-14T03:33:59.789Z,95.50
2018-05-14T03:36:26.070Z,95.60
2018-05-14T03:38:52.818Z,95.60
2018-05-14T03:41:19.078Z,95.40
2018-05-14T03:43:46.063Z,95.50
2018-05-14T03:46:13.105Z,95.60
2018-05-14T03:48:39.389Z,95.60
2018-05-14T03:51:06.637Z,95.70
2018-05-14T03:53:32.881Z,95.70
2018-05-14T03:55:59.143Z,95.70
2018-05-14T03:58:37.978Z,95.50
2018-05-14T04:01:13.588Z,95.60
2018-05-14T04:03:52.826Z,95.60
2018-05-14T04:06:30.118Z,95.60
2018-05-14T04:08:57.152Z,95.50
2018-05-14T04:11:24.302Z,95.50
2018-05-14T04:13:50.579Z,95.50
2018-05-14T04:16:16.890Z,95.30
2018-05-14T04:18:43.871Z,95.30
2018-05-14T04:21:10.268Z,95.30
2018-05-14T04:23:37.243Z,95.60
2018-05-14T04:26:03.485Z,95.60
2018-05-14T04:28:29.769Z,95.40
2018-05-14T04:30:56.574Z,95.60
2018-05-14T04:33:22.857Z,95.60
2018-05-14T04:35:49.450Z,95.90
2018-05-14T04:38:15.718Z,95.70
2018-05-14T04:40:42.913Z,95.90
2018-05-14T04:43:09.186Z,95.80
2018-05-14T04:45:35.790Z,95.60
2018-05-14T04:48:02.054Z,95.50
2018-05-14T04:50:29.048Z,95.40
2018-05-14T04:52:55.311Z,95.40
2018-05-14T04:55:22.963Z,95.50
2018-05-14T04:57:50.665Z,95.30
2018-05-14T05:00:16.923Z,95.40
2018-05-14T05:02:43.846Z,95.50
2018-05-14T05:05:10.098Z,95.90
2018-05-14T05:07:37.109Z,95.30
2018-05-14T05:10:03.402Z,95.30
2018-05-14T05:12:29.674Z,95.40
2018-05-14T05:14:56.170Z,95.30
2018-05-14T05:17:22.403Z,95.60
2018-05-14T05:19:48.726Z,95.50
2018-05-14T05:22:15.682Z,95.70
2018-05-14T05:24:41.966Z,95.70
2018-05-14T05:27:08.198Z,95.60
2018-05-14T05:29:34.698Z,95.40
2018-05-14T05:32:01.189Z,95.60
2018-05-14T05:34:27.694Z,95.60
2018-05-14T05:36:53.925Z,95.40
2018-05-14T05:39:20.191Z,95.20
2018-05-14T05:41:46.474Z,95.40
2018-05-14T05:44:12.747Z,95.40
2018-05-14T05:46:39.277Z,95.80
2018-05-14T05:49:05.739Z,95.70
2018-05-14T05:51:32.290Z,95.80
2018-05-14T05:53:58.563Z,95.80
2018-05-14T05:56:24.810Z,95.90
2018-05-14T05:58:51.085Z,95.90
2018-05-14T06:01:17.368Z,95.80
2018-05-14T06:03:44.095Z,95.40
2018-05-14T06:06:10.315Z,95.50
2018-05-14T06:08:39.551Z,95.50
2018-05-14T06:11:08.638Z,95.40
2018-05-14T06:13:35.271Z,95.50
2018-05-14T06:16:01.521Z,95.40
2018-05-14T06:18:28.285Z,95.70
2018-05-14T06:20:54.790Z,95.50
2018-05-14T06:23:21.022Z,95.20
2018-05-14T06:25:47.277Z,95.20
2018-05-14T06:28:13.518Z,95.30
2018-05-14T06:30:39.795Z,95.10
2018-05-14T06:33:06.021Z,95.30
2018-05-14T06:35:32.544Z,95.00
2018-05-14T06:37:58.738Z,95.00
2018-05-14T06:40:25.726Z,94.80
2018-05-14T06:42:52.277Z,94.70
2018-05-14T06:45:18.541Z,94.80
2018-05-14T06:47:44.761Z,94.80
2018-05-14T06:50:11.026Z,94.80
2018-05-14T06:52:37.261Z,95.00
2018-05-14T06:55:03.566Z,94.80
2018-05-14T06:57:29.810Z,95.00
2018-05-14T06:59:56.449Z,94.70
2018-05-14T07:02:22.674Z,94.80
2018-05-14T07:04:48.933Z,94.70
2018-05-14T07:07:15.470Z,94.60
2018-05-14T07:09:41.752Z,94.60
2018-05-14T07:12:08.025Z,94.70
2018-05-14T07:14:34.315Z,94.80
2018-05-14T07:17:01.317Z,94.50
2018-05-14T07:19:27.578Z,94.50
2018-05-14T07:21:53.870Z,94.90
2018-05-14T07:24:20.113Z,94.50
2018-05-14T07:26:47.243Z,94.00
2018-05-14T07:29:13.657Z,94.00
2018-05-14T07:31:39.917Z,94.00
2018-05-14T07:34:06.158Z,93.90
2018-05-14T07:36:32.422Z,94.20
2018-05-14T07:38:58.649Z,94.10
2018-05-14T07:41:25.359Z,93.70
2018-05-14T07:43:52.434Z,93.60
2018-05-14T07:46:18.817Z,94.30
2018-05-14T07:48:45.777Z,93.50
2018-05-14T07:51:12.078Z,93.40
2018-05-14T07:53:38.307Z,93.40
2018-05-14T07:56:04.574Z,93.00
2018-05-14T07:58:31.078Z,93.10
2018-05-14T08:00:57.382Z,93.00
2018-05-14T08:03:23.618Z,93.10
2018-05-14T08:05:49.953Z,93.00
2018-05-14T08:08:16.162Z,93.00
2018-05-14T08:10:42.625Z,92.90
2018-05-14T08:13:08.853Z,93.10
2018-05-14T08:15:35.082Z,93.10
2018-05-14T08:18:01.386Z,93.40
2018-05-14T08:20:27.638Z,93.00
2018-05-14T08:22:55.396Z,92.40
2018-05-14T08:25:21.623Z,92.40
2018-05-14T08:27:47.889Z,92.40
2018-05-14T08:30:14.122Z,92.40
2018-05-14T08:32:40.421Z,92.50
2018-05-14T08:35:06.706Z,92.60
2018-05-14T08:37:33.602Z,91.90
2018-05-14T08:39:59.826Z,91.90
2018-05-14T08:42:26.135Z,91.90
2018-05-14T08:44:52.881Z,92.00
2018-05-14T08:47:19.125Z,91.90
2018-05-14T08:49:45.438Z,91.40
2018-05-14T08:52:12.084Z,91.20
2018-05-14T08:54:38.357Z,91.90
2018-05-14T08:57:04.613Z,91.80
2018-05-14T08:59:31.459Z,91.80
2018-05-14T09:01:58.488Z,91.40
2018-05-14T09:04:25.141Z,91.40
2018-05-14T09:06:51.401Z,91.30
2018-05-14T09:09:17.623Z,91.80
2018-05-14T09:11:43.917Z,91.80
2018-05-14T09:14:10.510Z,91.40
2018-05-14T09:16:36.733Z,90.70
2018-05-14T09:19:02.999Z,90.70
2018-05-14T09:21:29.910Z,90.60
2018-05-14T09:23:56.166Z,90.10
2018-05-14T09:26:22.405Z,90.50
2018-05-14T09:28:48.650Z,90.50
2018-05-14T09:31:14.936Z,90.20
2018-05-14T09:33:41.157Z,90.30
2018-05-14T09:36:07.738Z,90.60
2018-05-14T09:38:33.995Z,90.00
2018-05-14T09:41:01.466Z,90.00
2018-05-14T09:43:27.725Z,90.00
2018-05-14T09:45:53.974Z,90.20
2018-05-14T09:48:20.599Z,90.20
2018-05-14T09:50:46.698Z,89.70
2018-05-14T09:53:12.962Z,89.50
2018-05-14T09:55:39.207Z,88.10
2018-05-14T09:58:05.485Z,89.40
2018-05-14T10:00:31.897Z,88.30
2018-05-14T10:02:58.146Z,88.00
2018-05-14T10:05:24.534Z,88.30
2018-05-14T10:07:50.767Z,88.30
2018-05-14T10:10:17.054Z,89.50
2018-05-14T10:12:43.806Z,90.00
2018-05-14T10:15:10.066Z,89.60
2018-05-14T10:17:36.306Z,89.50
2018-05-14T10:20:02.581Z,89.90
2018-05-14T10:22:28.829Z,88.80
2018-05-14T10:24:55.606Z,89.30
2018-05-14T10:27:21.870Z,88.90
2018-05-14T10:29:48.121Z,89.40
2018-05-14T10:32:14.757Z,86.60
2018-05-14T10:34:41.042Z,88.20
2018-05-14T10:37:07.293Z,86.80
2018-05-14T10:39:33.826Z,86.70
2018-05-14T10:42:00.138Z,87.00
2018-05-14T10:44:26.415Z,86.60
2018-05-14T10:46:52.692Z,86.20
2018-05-14T10:49:18.986Z,85.10
2018-05-14T10:51:45.414Z,84.90
2018-05-14T10:54:11.658Z,83.60
2018-05-14T10:56:38.590Z,83.50
2018-05-14T10:59:04.846Z,83.90
2018-05-14T11:01:31.109Z,83.40
2018-05-14T11:03:57.408Z,83.10
2018-05-14T11:06:23.670Z,83.80
2018-05-14T11:08:49.902Z,82.70
2018-05-14T11:11:16.179Z,83.40
2018-05-14T11:13:42.417Z,84.10
2018-05-14T11:16:08.814Z,83.40
2018-05-14T11:18:35.039Z,83.00
2018-05-14T11:21:01.383Z,82.80
2018-05-14T11:23:28.253Z,81.80
2018-05-14T11:25:54.522Z,79.80
2018-05-14T11:28:21.206Z,79.30
2018-05-14T11:30:47.665Z,80.30
2018-05-14T11:33:13.902Z,80.00
2018-05-14T11:35:40.169Z,79.80
2018-05-14T11:38:06.668Z,81.30
2018-05-14T11:40:32.922Z,81.90
2018-05-14T11:42:59.159Z,82.40
2018-05-14T11:45:26.030Z,82.10
2018-05-14T11:47:52.277Z,82.50
2018-05-14T11:50:18.509Z,82.00
2018-05-14T11:52:44.779Z,81.10
2018-05-14T11:55:11.766Z,82.20
2018-05-14T11:57:38.273Z,82.00
2018-05-14T12:00:04.555Z,81.80
2018-05-14T12:02:30.826Z,82.20
2018-05-14T12:04:57.129Z,81.90
2018-05-14T12:07:23.375Z,79.30
2018-05-14T12:09:49.603Z,79.30
2018-05-14T12:12:15.919Z,79.10
2018-05-14T12:14:42.163Z,79.80
2018-05-14T12:17:08.474Z,78.20
2018-05-14T12:19:34.713Z,77.50
2018-05-14T12:22:01.053Z,76.00
2018-05-14T12:24:27.846Z,77.90
2018-05-14T12:26:54.110Z,77.10
2018-05-14T12:29:20.369Z,78.00
2018-05-14T12:31:47.553Z,77.40
2018-05-14T12:34:13.782Z,77.30
2018-05-14T12:36:40.030Z,77.30
2018-05-14T12:39:06.298Z,77.00
2018-05-14T12:41:32.553Z,76.80
2018-05-14T12:43:59.542Z,76.80
2018-05-14T12:46:25.797Z,76.80
2018-05-14T12:48:52.158Z,75.80
2018-05-14T12:51:18.493Z,75.20
2018-05-14T12:53:46.361Z,75.60
2018-05-14T12:56:12.599Z,75.40
2018-05-14T12:58:39.602Z,72.70
2018-05-14T13:01:05.834Z,72.70
2018-05-14T13:03:32.099Z,72.00
2018-05-14T13:05:59.070Z,72.90
2018-05-14T13:08:25.617Z,72.90
2018-05-14T13:10:51.942Z,73.90
2018-05-14T13:13:18.205Z,72.00
2018-05-14T13:15:45.048Z,70.40
2018-05-14T13:18:11.799Z,70.80
2018-05-14T13:20:38.548Z,70.80
2018-05-14T13:23:05.230Z,68.00
2018-05-14T13:25:32.344Z,68.90
2018-05-14T13:27:58.577Z,69.30
2018-05-14T13:30:24.841Z,66.20
2018-05-14T13:32:51.085Z,68.10
2018-05-14T13:35:17.354Z,66.60
2018-05-14T13:37:43.613Z,66.60
2018-05-14T13:40:09.883Z,67.60
2018-05-14T13:42:36.198Z,68.50
2018-05-14T13:45:03.111Z,66.00
2018-05-14T13:47:29.363Z,65.70
2018-05-14T13:49:55.981Z,65.90
2018-05-14T13:52:22.291Z,64.30
2018-05-14T13:54:48.571Z,60.40
2018-05-14T13:57:16.116Z,55.40
2018-05-14T13:59:42.374Z,55.30
2018-05-14T14:02:08.854Z,51.70
2018-05-14T14:04:35.646Z,46.20
2018-05-14T14:07:01.913Z,45.60
2018-05-14T14:09:28.830Z,42.50
2018-05-14T14:11:55.086Z,40.70
2018-05-14T14:14:21.391Z,41.70
2018-05-14T14:16:48.090Z,41.30
2018-05-14T14:19:14.322Z,40.10
2018-05-14T14:21:40.605Z,40.40
2018-05-14T14:24:06.949Z,42.60
2018-05-14T14:26:33.162Z,44.10
2018-05-14T14:29:00.417Z,47.90
2018-05-14T14:31:27.362Z,52.40
2018-05-14T14:33:53.591Z,53.40
2018-05-14T14:36:20.696Z,55.50
2018-05-14T14:38:46.897Z,57.40
2018-05-14T14:41:13.182Z,56.30
2018-05-14T14:43:39.414Z,59.00
2018-05-14T14:46:06.222Z,60.90
2018-05-14T14:48:32.493Z,58.40
2018-05-14T14:50:58.759Z,56.80
2018-05-14T14:53:25.057Z,58.90
2018-05-14T14:55:51.654Z,60.30
2018-05-14T14:58:18.249Z,59.80
2018-05-14T15:00:44.526Z,61.60
2018-05-14T15:03:11.053Z,62.70
2018-05-14T15:05:37.780Z,64.70
2018-05-14T15:08:04.154Z,64.00
2018-05-14T15:10:30.422Z,64.00
2018-05-14T15:12:57.001Z,63.30
2018-05-14T15:15:23.566Z,63.70
2018-05-14T15:17:50.218Z,64.90
2018-05-14T15:20:16.676Z,62.10
2018-05-14T15:22:42.949Z,59.10
2018-05-14T15:25:09.918Z,51.60
2018-05-14T15:27:36.642Z,43.60
2018-05-14T15:30:02.893Z,39.00
2018-05-14T15:32:29.159Z,36.90
2018-05-14T15:34:55.427Z,38.50
2018-05-14T15:37:21.675Z,39.50
2018-05-14T15:39:47.918Z,37.50
2018-05-14T15:42:15.070Z,36.00
2018-05-14T15:44:41.495Z,30.30
2018-05-14T15:47:07.793Z,29.70
2018-05-14T15:49:34.390Z,30.00
2018-05-14T15:52:00.652Z,28.80
2018-05-14T15:54:26.906Z,30.10
2018-05-14T15:56:53.502Z,32.60
2018-05-14T15:59:19.743Z,35.00
2018-05-14T16:01:45.992Z,36.30
2018-05-14T16:04:13.185Z,35.80
2018-05-14T16:06:39.415Z,36.70
2018-05-14T16:09:07.097Z,37.80
2018-05-14T16:11:33.362Z,40.30
2018-05-14T16:14:00.073Z,41.30
2018-05-14T16:16:26.326Z,42.90
2018-05-14T16:18:53.211Z,43.70
2018-05-14T16:21:19.606Z,43.50
2018-05-14T16:23:45.880Z,44.30
2018-05-14T16:26:12.120Z,45.90
2018-05-14T16:28:38.673Z,46.90
2018-05-14T16:31:04.954Z,47.50
2018-05-14T16:33:31.218Z,48.40
2018-05-14T16:35:57.502Z,49.40
2018-05-14T16:38:23.819Z,49.50
2018-05-14T16:40:50.389Z,49.80
2018-05-14T16:43:16.634Z,50.10
2018-05-14T16:45:42.936Z,49.60
2018-05-14T16:48:09.191Z,49.80
2018-05-14T16:50:35.442Z,49.90
2018-05-14T16:53:02.220Z,49.80
2018-05-14T16:55:28.490Z,49.50
2018-05-14T16:57:54.795Z,48.90
2018-05-14T17:00:24.150Z,47.90
2018-05-14T17:02:51.517Z,48.00
2018-05-14T17:05:17.877Z,48.30
2018-05-14T17:07:44.201Z,47.30
2018-05-14T17:10:11.682Z,47.10
2018-05-14T17:12:37.901Z,48.30
2018-05-14T17:15:04.173Z,48.70
2018-05-14T17:17:45.437Z,48.50
2018-05-14T17:20:11.726Z,48.90
2018-05-14T17:22:38.113Z,48.80
2018-05-14T17:25:05.318Z,49.10
2018-05-14T17:27:31.657Z,49.10
2018-05-14T17:29:57.925Z,48.60
2018-05-14T17:32:24.171Z,48.60
2018-05-14T17:34:51.181Z,49.00
2018-05-14T17:37:18.667Z,49.40
2018-05-14T17:39:45.642Z,48.80
2018-05-14T17:42:12.062Z,48.30
2018-05-14T17:44:39.051Z,48.80
2018-05-14T17:47:05.378Z,48.80
2018-05-14T17:49:32.293Z,49.20
2018-05-14T17:51:58.618Z,49.10
2018-05-14T17:54:24.954Z,49.50
2018-05-14T17:56:51.191Z,49.50
2018-05-14T17:59:17.490Z,49.60
2018-05-14T18:01:43.774Z,50.00
2018-05-14T18:04:10.029Z,50.30
2018-05-14T18:06:36.543Z,50.80
2018-05-14T18:09:02.833Z,51.30
2018-05-14T18:11:29.090Z,51.60
2018-05-14T18:13:55.547Z,51.90
2018-05-14T18:16:21.828Z,52.50
2018-05-14T18:18:48.066Z,52.60
2018-05-14T18:21:14.358Z,52.70
2018-05-14T18:23:46.714Z,53.30
2018-05-14T18:26:16.329Z,53.70
2018-05-14T18:28:42.605Z,53.70
2018-05-14T18:31:15.190Z,53.70
2018-05-14T18:33:41.456Z,54.00
2018-05-14T18:36:07.905Z,54.00
2018-05-14T18:38:34.165Z,54.30
2018-05-14T18:41:00.419Z,54.50
2018-05-14T18:43:26.672Z,54.60
2018-05-14T18:45:52.931Z,54.30
2018-05-14T18:48:19.530Z,54.60
2018-05-14T18:50:45.775Z,54.70
2018-05-14T18:53:12.061Z,55.00
2018-05-14T18:55:38.501Z,54.90
2018-05-14T18:58:04.765Z,55.20
2018-05-14T19:00:30.994Z,56.30
2018-05-14T19:02:57.623Z,55.60
2018-05-14T19:05:23.973Z,56.10
2018-05-14T19:07:50.337Z,56.40
2018-05-14T19:10:22.577Z,56.60
2018-05-14T19:12:49.654Z,57.10
2018-05-14T19:15:21.995Z,57.70
2018-05-14T19:17:54.729Z,58.30
2018-05-14T19:20:21.727Z,58.60
2018-05-14T19:22:54.172Z,58.70
2018-05-14T19:25:20.413Z,59.10
2018-05-14T19:27:52.606Z,59.30
2018-05-14T19:30:19.578Z,58.90
2018-05-14T19:32:46.080Z,58.90
2018-05-14T19:35:19.078Z,59.60
2018-05-14T19:37:45.334Z,58.90
2018-05-14T19:40:17.876Z,59.40
2018-05-14T19:42:44.160Z,59.10
2018-05-14T19:45:10.410Z,59.10
2018-05-14T19:47:36.894Z,58.90
2018-05-14T19:50:03.237Z,58.90
2018-05-14T19:52:29.462Z,59.10
2018-05-14T19:54:55.733Z,58.70
2018-05-14T19:57:21.988Z,59.10
2018-05-14T19:59:49.023Z,58.80
2018-05-14T20:02:15.327Z,58.80
2018-05-14T20:04:41.731Z,59.10
2018-05-14T20:07:08.710Z,59.30
2018-05-14T20:09:35.136Z,59.20
2018-05-14T20:12:01.430Z,59.40
2018-05-14T20:14:28.430Z,59.60
2018-05-14T20:16:54.702Z,59.60
2018-05-14T20:19:21.323Z,59.90
2018-05-14T20:21:47.648Z,59.90
2018-05-14T20:24:13.930Z,59.90
2018-05-14T20:26:40.226Z,60.00
2018-05-14T20:29:06.574Z,59.70
2018-05-14T20:31:33.234Z,60.10
2018-05-14T20:33:59.550Z,60.20
2018-05-14T20:36:26.338Z,60.20
2018-05-14T20:38:53.201Z,60.00
2018-05-14T20:41:19.975Z,60.80
2018-05-14T20:43:46.209Z,60.60
2018-05-14T20:46:12.557Z,60.50
2018-05-14T20:48:38.813Z,60.40
2018-05-14T20:51:05.148Z,60.40
2018-05-14T20:53:32.057Z,59.90
2018-05-14T20:55:58.391Z,59.60
2018-05-14T20:58:26.365Z,59.30
2018-05-14T21:00:53.119Z,59.00
2018-05-14T21:03:19.394Z,58.30
2018-05-14T21:05:45.737Z,58.10
2018-05-14T21:08:13.125Z,57.40
2018-05-14T21:10:40.662Z,57.60
2018-05-14T21:13:06.945Z,57.60
2018-05-14T21:15:33.655Z,57.20
2018-05-14T21:17:59.903Z,57.40
2018-05-14T21:20:27.146Z,57.20
2018-05-14T21:22:53.598Z,57.10
2018-05-14T21:25:20.073Z,57.00
2018-05-14T21:27:46.366Z,57.00
2018-05-14T21:30:13.305Z,57.30
2018-05-14T21:32:39.550Z,57.60
2018-05-14T21:35:06.527Z,58.00
2018-05-14T21:37:32.792Z,57.90
2018-05-14T21:39:59.125Z,58.30
2018-05-14T21:42:26.184Z,58.50
2018-05-14T21:44:52.434Z,58.50
2018-05-14T21:47:18.983Z,58.60
2018-05-14T21:49:45.262Z,59.00
2018-05-14T21:52:12.395Z,58.30
2018-05-14T21:54:38.641Z,58.40
2018-05-14T21:57:05.166Z,58.70
2018-05-14T21:59:31.450Z,58.90
2018-05-14T22:01:58.055Z,59.40
2018-05-14T22:04:24.253Z,59.50
2018-05-14T22:06:51.271Z,59.10
2018-05-14T22:09:17.517Z,59.10
2018-05-14T22:11:44.235Z,59.00
2018-05-14T22:14:10.551Z,58.80
2018-05-14T22:16:37.562Z,58.60
2018-05-14T22:19:03.813Z,58.60
2018-05-14T22:21:30.533Z,58.80
2018-05-14T22:23:56.781Z,58.70
2018-05-14T22:26:23.321Z,58.90
2018-05-14T22:28:49.580Z,59.00
2018-05-14T22:31:16.482Z,59.00
2018-05-14T22:33:42.733Z,58.90
2018-05-14T22:36:09.486Z,58.70
2018-05-14T22:38:35.738Z,58.50
2018-05-14T22:41:02.483Z,58.40
2018-05-14T22:43:32.998Z,59.00
2018-05-14T22:45:59.290Z,58.90
2018-05-14T22:48:26.013Z,58.50
2018-05-14T22:50:52.393Z,58.50
2018-05-14T22:53:18.875Z,58.40
2018-05-14T22:55:45.119Z,58.10
2018-05-14T22:58:11.562Z,58.20
2018-05-14T23:00:37.817Z,57.60
2018-05-14T23:03:04.127Z,58.00
2018-05-14T23:05:30.365Z,57.30
2018-05-14T23:07:56.631Z,57.00
2018-05-14T23:10:22.893Z,57.30
2018-05-14T23:12:49.277Z,57.20
2018-05-14T23:15:15.885Z,57.20
2018-05-14T23:17:42.722Z,57.00
2018-05-14T23:20:08.953Z,56.80
2018-05-14T23:22:40.209Z,57.10
2018-05-14T23:25:06.469Z,56.50
2018-05-14T23:27:33.199Z,57.30
2018-05-14T23:29:59.490Z,57.70
2018-05-14T23:32:26.502Z,57.00
2018-05-14T23:34:52.737Z,56.90
2018-05-14T23:37:19.244Z,57.40
2018-05-14T23:39:45.489Z,59.20
2018-05-14T23:42:12.379Z,58.20
2018-05-14T23:44:38.635Z,60.10
2018-05-14T23:47:04.902Z,61.80
2018-05-14T23:49:32.378Z,62.00
2018-05-14T23:51:58.638Z,61.90
2018-05-14T23:54:24.901Z,64.30
2018-05-14T23:56:51.153Z,65.10
2018-05-14T23:59:17.382Z,66.10
